Time;durP1;ratioP1;P1;durP2;ratioP2;P2;SDS_P1;SDS_P2;PMS_P1;PMS_P2;Temp;Humidity;BMP_temperature;BMP_pressure;BME280_temperature;BME280_humidity;BME280_pressure;Samples;Min_cycle;Max_cycle;Signal;HPM_P1;HPM_P2
2024/01/10 00:00:37;;;;;;;4.95;2.50;;;;;;;;;;4802288;29;20649;-73
2024/01/10 00:03:03;;;;;;;5.35;2.58;;;;;;;;;;4798785;29;20350;-71
2024/01/10 00:05:30;;;;;;;5.38;2.70;;;;;;;;;;4800003;29;20055;-71
2024/01/10 00:07:56;;;;;;;6.65;3.03;;;;;;;;;;4792353;29;20073;-72
2024/01/10 00:10:23;;;;;;;6.82;2.45;;;;;;;;;;4799446;29;20078;-71
2024/01/10 00:12:50;;;;;;;5.10;2.33;;;;;;;;;;4800483;29;20112;-71
2024/01/10 00:15:16;;;;;;;6.00;2.97;;;;;;;;;;4793738;29;20141;-71
2024/01/10 00:17:43;;;;;;;5.25;2.53;;;;;;;;;;4798254;29;20420;-71
2024/01/10 00:20:09;;;;;;;5.25;2.60;;;;;;;;;;4792966;29;20063;-71
2024/01/10 00:22:36;;;;;;;6.88;3.05;;;;;;;;;;4793489;29;20057;-70
2024/01/10 00:25:02;;;;;;;5.82;2.65;;;;;;;;;;4809967;29;20054;-71
2024/01/10 00:27:29;;;;;;;5.43;3.10;;;;;;;;;;4793364;29;20303;-72
2024/01/10 00:29:56;;;;;;;4.68;2.45;;;;;;;;;;4797876;29;20138;-72
2024/01/10 00:32:23;;;;;;;5.57;3.30;;;;;;;;;;4792393;29;20479;-70
2024/01/10 00:34:49;;;;;;;8.05;3.42;;;;;;;;;;4784075;29;20291;-73
2024/01/10 00:37:16;;;;;;;5.93;2.88;;;;;;;;;;4790857;29;20058;-72
2024/01/10 00:39:42;;;;;;;5.10;2.92;;;;;;;;;;4796371;29;20063;-73
2024/01/10 00:42:09;;;;;;;7.95;2.90;;;;;;;;;;4798367;29;20090;-71
2024/01/10 00:44:36;;;;;;;3.78;2.17;;;;;;;;;;4791757;29;20115;-72
2024/01/10 00:47:02;;;;;;;5.70;3.10;;;;;;;;;;4797598;29;20059;-74
2024/01/10 00:49:29;;;;;;;5.97;2.70;;;;;;;;;;4789654;29;20072;-72
2024/01/10 00:51:55;;;;;;;5.10;2.50;;;;;;;;;;4793784;29;20051;-75
2024/01/10 00:54:22;;;;;;;5.57;2.90;;;;;;;;;;4796316;29;20130;-74
2024/01/10 00:56:50;;;;;;;6.80;2.88;;;;;;;;;;4790673;29;20635;-73
2024/01/10 00:59:17;;;;;;;7.07;3.08;;;;;;;;;;4803079;29;20062;-74
2024/01/10 01:01:43;;;;;;;6.10;3.17;;;;;;;;;;4792075;29;20070;-74
2024/01/10 01:04:10;;;;;;;5.35;2.72;;;;;;;;;;4794984;29;20133;-72
2024/01/10 01:06:36;;;;;;;6.13;2.90;;;;;;;;;;4795155;29;20050;-72
2024/01/10 01:09:03;;;;;;;8.00;2.67;;;;;;;;;;4791675;29;20094;-71
2024/01/10 01:11:29;;;;;;;7.43;3.13;;;;;;;;;;4797645;29;20058;-72
2024/01/10 01:13:56;;;;;;;5.70;2.60;;;;;;;;;;4792639;29;20047;-72
2024/01/10 01:16:22;;;;;;;5.25;2.85;;;;;;;;;;4786641;29;20639;-71
2024/01/10 01:18:49;;;;;;;8.18;2.88;;;;;;;;;;4797284;29;20115;-72
2024/01/10 01:21:15;;;;;;;5.32;2.92;;;;;;;;;;4792158;29;20108;-71
2024/01/10 01:23:42;;;;;;;6.43;2.92;;;;;;;;;;4797760;29;20058;-73
2024/01/10 01:26:08;;;;;;;6.75;3.08;;;;;;;;;;4791806;29;20057;-71
2024/01/10 01:28:35;;;;;;;8.52;2.67;;;;;;;;;;4798352;29;20065;-71
2024/01/10 01:31:02;;;;;;;5.50;3.00;;;;;;;;;;4793073;29;20833;-71
2024/01/10 01:33:28;;;;;;;6.03;2.92;;;;;;;;;;4796917;29;20063;-71
2024/01/10 01:35:55;;;;;;;6.65;2.70;;;;;;;;;;4798099;29;20062;-72
2024/01/10 01:38:21;;;;;;;5.90;3.35;;;;;;;;;;4793292;29;20190;-71
2024/01/10 01:40:48;;;;;;;6.78;3.00;;;;;;;;;;4797681;29;20512;-71
2024/01/10 01:43:18;;;;;;;5.55;2.63;;;;;;;;;;4790022;29;20054;-72
2024/01/10 01:45:45;;;;;;;7.68;3.28;;;;;;;;;;4806633;29;20047;-72
2024/01/10 01:48:11;;;;;;;4.10;2.53;;;;;;;;;;4793219;29;20055;-71
2024/01/10 01:50:38;;;;;;;6.10;3.10;;;;;;;;;;4793389;29;20064;-71
2024/01/10 01:53:04;;;;;;;5.78;2.47;;;;;;;;;;4797825;29;20047;-71
2024/01/10 01:55:31;;;;;;;5.90;2.90;;;;;;;;;;4790344;29;20055;-72
2024/01/10 01:57:57;;;;;;;5.95;3.22;;;;;;;;;;4793045;29;20043;-71
2024/01/10 02:00:24;;;;;;;5.13;3.17;;;;;;;;;;4790862;29;20058;-71
2024/01/10 02:02:50;;;;;;;4.70;2.60;;;;;;;;;;4796836;29;20082;-71
2024/01/10 02:05:17;;;;;;;8.85;3.50;;;;;;;;;;4797486;29;20051;-71
2024/01/10 02:07:44;;;;;;;6.38;3.15;;;;;;;;;;4792317;29;20066;-71
2024/01/10 02:10:10;;;;;;;5.07;2.75;;;;;;;;;;4797240;29;20051;-71
2024/01/10 02:12:37;;;;;;;6.10;2.63;;;;;;;;;;4792241;29;20055;-71
2024/01/10 02:15:03;;;;;;;6.20;2.60;;;;;;;;;;4798033;29;20088;-71
2024/01/10 02:17:30;;;;;;;7.13;2.90;;;;;;;;;;4797846;29;20142;-71
2024/01/10 02:20:09;;;;;;;5.90;3.20;;;;;;;;;;4792892;29;20059;-71
2024/01/10 02:22:35;;;;;;;;;;;;;;;;;;4794807;29;20059;-71
2024/01/10 02:25:02;;;;;;;6.82;2.67;;;;;;;;;;4807413;29;20165;-71
2024/01/10 02:27:29;;;;;;;5.72;2.88;;;;;;;;;;4800363;29;20716;-70
2024/01/10 02:29:56;;;;;;;6.25;2.85;;;;;;;;;;4796257;29;20054;-70
2024/01/10 02:32:23;;;;;;;6.53;2.95;;;;;;;;;;4801526;29;20061;-71
2024/01/10 02:34:50;;;;;;;4.93;2.40;;;;;;;;;;4813217;29;20690;-71
2024/01/10 02:37:16;;;;;;;7.00;3.20;;;;;;;;;;4792679;29;20839;-71
2024/01/10 02:39:42;;;;;;;4.78;2.35;;;;;;;;;;4801125;29;20055;-71
2024/01/10 02:42:09;;;;;;;7.30;3.47;;;;;;;;;;4797421;29;20141;-71
2024/01/10 02:44:35;;;;;;;6.95;2.85;;;;;;;;;;4797667;29;20043;-71
2024/01/10 02:47:02;;;;;;;6.80;2.90;;;;;;;;;;4800334;29;20898;-71
2024/01/10 02:49:28;;;;;;;8.05;3.25;;;;;;;;;;4796178;29;20049;-72
2024/01/10 02:51:55;;;;;;;7.20;2.90;;;;;;;;;;4796174;29;20051;-70
2024/01/10 02:54:21;;;;;;;8.32;3.15;;;;;;;;;;4794902;29;20104;-70
2024/01/10 02:56:47;;;;;;;5.75;2.85;;;;;;;;;;4799333;29;20055;-71
2024/01/10 02:59:14;;;;;;;5.18;2.60;;;;;;;;;;4796136;29;20087;-70
2024/01/10 03:01:41;;;;;;;6.32;3.10;;;;;;;;;;4800290;29;20936;-73
2024/01/10 03:04:09;;;;;;;4.32;2.72;;;;;;;;;;4797021;29;20055;-72
2024/01/10 03:06:36;;;;;;;6.40;2.80;;;;;;;;;;4787374;29;20050;-71
2024/01/10 03:09:03;;;;;;;5.63;2.65;;;;;;;;;;4798456;29;20054;-69
2024/01/10 03:11:30;;;;;;;5.70;2.97;;;;;;;;;;4785262;29;20059;-70
2024/01/10 03:14:09;;;;;;;6.23;2.63;;;;;;;;;;4800726;29;20062;-71
2024/01/10 03:16:36;;;;;;;6.57;2.92;;;;;;;;;;4797939;29;20090;-71
2024/01/10 03:19:03;;;;;;;6.07;3.15;;;;;;;;;;4789358;29;20112;-72
2024/01/10 03:21:29;;;;;;;6.05;3.17;;;;;;;;;;4802028;29;20050;-71
2024/01/10 03:23:57;;;;;;;6.35;3.15;;;;;;;;;;4794260;29;20063;-71
2024/01/10 03:26:24;;;;;;;6.22;2.92;;;;;;;;;;4799881;29;20454;-71
2024/01/10 03:28:51;;;;;;;7.05;3.25;;;;;;;;;;4804153;29;20111;-72
2024/01/10 03:31:18;;;;;;;5.60;3.00;;;;;;;;;;4809782;29;20077;-71
2024/01/10 03:33:44;;;;;;;7.82;3.13;;;;;;;;;;4794005;29;20460;-71
2024/01/10 03:36:13;;;;;;;7.95;2.90;;;;;;;;;;4795020;29;20115;-71
2024/01/10 03:38:39;;;;;;;5.65;2.55;;;;;;;;;;4796149;29;20042;-71
2024/01/10 03:41:06;;;;;;;7.22;3.38;;;;;;;;;;4793649;29;20123;-71
2024/01/10 03:43:32;;;;;;;6.65;2.95;;;;;;;;;;4799077;29;20054;-72
2024/01/10 03:45:59;;;;;;;9.23;3.28;;;;;;;;;;4797748;29;20047;-71
2024/01/10 03:48:25;;;;;;;6.28;2.80;;;;;;;;;;4790363;29;20119;-71
2024/01/10 03:50:52;;;;;;;6.10;3.33;;;;;;;;;;4799928;29;20129;-72
2024/01/10 03:53:19;;;;;;;5.07;2.95;;;;;;;;;;4794306;29;20063;-71
2024/01/10 03:55:45;;;;;;;7.70;3.42;;;;;;;;;;4813240;29;20138;-72
2024/01/10 03:58:12;;;;;;;5.30;3.10;;;;;;;;;;4799960;29;20059;-72
2024/01/10 04:00:38;;;;;;;6.35;3.13;;;;;;;;;;4790811;29;20130;-71
2024/01/10 04:03:05;;;;;;;7.13;3.13;;;;;;;;;;4795608;29;20051;-72
2024/01/10 04:05:31;;;;;;;8.15;3.70;;;;;;;;;;4793718;29;20412;-71
2024/01/10 04:07:58;;;;;;;9.15;3.08;;;;;;;;;;4805837;29;20059;-70
2024/01/10 04:10:25;;;;;;;7.40;3.67;;;;;;;;;;4808986;29;20055;-71
2024/01/10 04:12:51;;;;;;;5.32;2.70;;;;;;;;;;4798408;29;20071;-71
2024/01/10 04:15:19;;;;;;;8.18;3.10;;;;;;;;;;4793882;29;20121;-72
2024/01/10 04:17:45;;;;;;;5.88;3.13;;;;;;;;;;4791364;29;20138;-72
2024/01/10 04:20:12;;;;;;;7.50;3.03;;;;;;;;;;4799700;29;20051;-72
2024/01/10 04:22:39;;;;;;;8.00;3.63;;;;;;;;;;4794601;29;20625;-71
2024/01/10 04:25:06;;;;;;;6.53;3.17;;;;;;;;;;4798646;29;20138;-71
2024/01/10 04:27:32;;;;;;;5.65;2.63;;;;;;;;;;4811504;29;20090;-72
2024/01/10 04:29:59;;;;;;;5.95;3.28;;;;;;;;;;4790441;29;20465;-71
2024/01/10 04:32:25;;;;;;;6.65;2.88;;;;;;;;;;4799343;29;20061;-71
2024/01/10 04:34:52;;;;;;;8.18;3.78;;;;;;;;;;4807559;29;20086;-72
2024/01/10 04:37:18;;;;;;;6.70;2.83;;;;;;;;;;4798719;29;20078;-71
2024/01/10 04:39:45;;;;;;;7.15;3.25;;;;;;;;;;4799310;29;20051;-72
2024/01/10 04:42:12;;;;;;;5.65;2.78;;;;;;;;;;4788946;29;20135;-71
2024/01/10 04:44:38;;;;;;;6.38;3.00;;;;;;;;;;4797332;29;20101;-70
2024/01/10 04:47:05;;;;;;;6.50;3.50;;;;;;;;;;4793280;29;20051;-70
2024/01/10 04:49:32;;;;;;;5.82;2.92;;;;;;;;;;4798876;29;20143;-70
2024/01/10 04:51:58;;;;;;;6.45;3.45;;;;;;;;;;4794030;29;20523;-70
2024/01/10 04:54:24;;;;;;;6.20;2.92;;;;;;;;;;4796592;29;20069;-70
2024/01/10 04:56:51;;;;;;;6.72;3.42;;;;;;;;;;4794334;29;20474;-72
2024/01/10 04:59:17;;;;;;;6.70;3.30;;;;;;;;;;4792690;29;20596;-72
2024/01/10 05:01:44;;;;;;;8.20;3.38;;;;;;;;;;4797790;29;20137;-70
2024/01/10 05:04:10;;;;;;;5.65;3.10;;;;;;;;;;4792665;29;20788;-70
2024/01/10 05:06:36;;;;;;;6.93;3.33;;;;;;;;;;4796633;29;20055;-70
2024/01/10 05:09:04;;;;;;;8.35;3.28;;;;;;;;;;4793682;29;20120;-71
2024/01/10 05:11:30;;;;;;;7.05;3.40;;;;;;;;;;4788095;29;20047;-69
2024/01/10 05:13:57;;;;;;;8.15;4.20;;;;;;;;;;4797022;29;20051;-71
2024/01/10 05:16:24;;;;;;;6.38;3.50;;;;;;;;;;4791878;29;20134;-71
2024/01/10 05:18:50;;;;;;;6.95;3.28;;;;;;;;;;4798457;29;20055;-71
2024/01/10 05:21:17;;;;;;;7.65;3.65;;;;;;;;;;4811536;29;20408;-71
2024/01/10 05:23:43;;;;;;;5.57;3.42;;;;;;;;;;4788046;29;20059;-70
2024/01/10 05:26:10;;;;;;;7.88;3.35;;;;;;;;;;4795648;29;20047;-71
2024/01/10 05:28:36;;;;;;;6.88;3.22;;;;;;;;;;4796423;29;20139;-70
2024/01/10 05:31:03;;;;;;;5.43;3.08;;;;;;;;;;4798469;29;20605;-71
2024/01/10 05:33:30;;;;;;;6.65;3.33;;;;;;;;;;4793539;29;20054;-71
2024/01/10 05:35:58;;;;;;;6.80;3.47;;;;;;;;;;4797075;29;20050;-71
2024/01/10 05:38:24;;;;;;;7.70;3.90;;;;;;;;;;4793560;29;20094;-71
2024/01/10 05:40:51;;;;;;;8.05;3.78;;;;;;;;;;4789316;29;20057;-69
2024/01/10 05:43:18;;;;;;;8.80;3.63;;;;;;;;;;4797861;29;20077;-71
2024/01/10 05:45:45;;;;;;;7.63;3.60;;;;;;;;;;4793181;29;20055;-71
2024/01/10 05:48:11;;;;;;;10.43;4.03;;;;;;;;;;4798247;29;20119;-70
2024/01/10 05:50:39;;;;;;;8.00;3.85;;;;;;;;;;4796963;29;20119;-72
2024/01/10 05:53:05;;;;;;;7.20;3.28;;;;;;;;;;4788200;29;20577;-73
2024/01/10 05:55:32;;;;;;;7.82;3.58;;;;;;;;;;4794304;29;20840;-72
2024/01/10 05:57:58;;;;;;;9.30;4.20;;;;;;;;;;4794916;29;20166;-72
2024/01/10 06:00:25;;;;;;;7.72;3.75;;;;;;;;;;4801516;29;20444;-71
2024/01/10 06:02:51;;;;;;;7.32;3.60;;;;;;;;;;4801881;29;20058;-72
2024/01/10 06:05:18;;;;;;;7.07;3.60;;;;;;;;;;4795231;29;20082;-72
2024/01/10 06:07:44;;;;;;;7.35;3.65;;;;;;;;;;4797808;29;20047;-70
2024/01/10 06:10:11;;;;;;;8.80;3.95;;;;;;;;;;4792602;29;20054;-70
2024/01/10 06:12:38;;;;;;;8.30;3.72;;;;;;;;;;4801046;29;20042;-71
2024/01/10 06:15:04;;;;;;;8.10;3.97;;;;;;;;;;4798892;29;20123;-72
2024/01/10 06:17:31;;;;;;;7.40;3.85;;;;;;;;;;4800905;29;20504;-71
2024/01/10 06:19:59;;;;;;;6.32;3.63;;;;;;;;;;4798085;29;20080;-73
2024/01/10 06:22:26;;;;;;;7.80;3.60;;;;;;;;;;4791371;29;20149;-73
2024/01/10 06:24:56;;;;;;;7.90;4.15;;;;;;;;;;4802324;29;20046;-71
2024/01/10 06:27:22;;;;;;;8.75;3.85;;;;;;;;;;4797510;29;20511;-71
2024/01/10 06:29:49;;;;;;;11.75;4.95;;;;;;;;;;4799980;29;20207;-72
2024/01/10 06:32:15;;;;;;;9.45;3.85;;;;;;;;;;4815077;29;20050;-71
2024/01/10 06:34:41;;;;;;;6.75;3.95;;;;;;;;;;4795773;29;20073;-71
2024/01/10 06:37:08;;;;;;;7.95;3.53;;;;;;;;;;4796553;29;20058;-71
2024/01/10 06:39:35;;;;;;;9.68;4.43;;;;;;;;;;4795227;29;20135;-71
2024/01/10 06:42:05;;;;;;;9.27;4.32;;;;;;;;;;4801085;29;20532;-72
2024/01/10 06:44:33;;;;;;;8.15;4.28;;;;;;;;;;4800113;29;20441;-73
2024/01/10 06:47:00;;;;;;;9.88;4.78;;;;;;;;;;4797707;29;20053;-72
2024/01/10 06:49:27;;;;;;;8.52;4.80;;;;;;;;;;4798507;29;20820;-73
2024/01/10 06:51:54;;;;;;;13.65;4.80;;;;;;;;;;4787325;29;20062;-71
2024/01/10 06:54:20;;;;;;;9.02;4.55;;;;;;;;;;4800945;29;20058;-71
2024/01/10 06:56:46;;;;;;;10.52;4.28;;;;;;;;;;4795109;29;20501;-73
2024/01/10 06:59:13;;;;;;;9.43;4.97;;;;;;;;;;4810875;29;20671;-73
2024/01/10 07:01:40;;;;;;;9.30;4.65;;;;;;;;;;4800019;29;20054;-71
2024/01/10 07:04:06;;;;;;;7.88;3.97;;;;;;;;;;4805101;29;20897;-71
2024/01/10 07:06:32;;;;;;;9.75;5.32;;;;;;;;;;4796219;29;20133;-71
2024/01/10 07:09:00;;;;;;;9.70;5.38;;;;;;;;;;4795254;29;20424;-71
2024/01/10 07:11:28;;;;;;;11.43;5.07;;;;;;;;;;4800706;29;20051;-71
2024/01/10 07:13:54;;;;;;;10.45;4.65;;;;;;;;;;4795049;29;20058;-73
2024/01/10 07:16:21;;;;;;;9.82;4.57;;;;;;;;;;4799512;29;20485;-71
2024/01/10 07:18:50;;;;;;;9.27;4.53;;;;;;;;;;4796812;29;20162;-71
2024/01/10 07:21:17;;;;;;;10.25;4.95;;;;;;;;;;4791851;29;20073;-72
2024/01/10 07:23:43;;;;;;;10.35;4.97;;;;;;;;;;4799381;29;20058;-71
2024/01/10 07:26:12;;;;;;;12.85;6.15;;;;;;;;;;4796057;29;20159;-72
2024/01/10 07:28:39;;;;;;;10.82;5.40;;;;;;;;;;4800095;29;20055;-71
2024/01/10 07:31:05;;;;;;;12.43;5.38;;;;;;;;;;4798962;29;20104;-71
2024/01/10 07:33:32;;;;;;;10.68;5.00;;;;;;;;;;4791787;29;20051;-71
2024/01/10 07:36:00;;;;;;;11.45;5.05;;;;;;;;;;4795867;29;20044;-71
2024/01/10 07:38:26;;;;;;;12.75;5.63;;;;;;;;;;4795622;29;20051;-71
2024/01/10 07:40:53;;;;;;;11.25;5.03;;;;;;;;;;4800318;29;20141;-71
2024/01/10 07:43:19;;;;;;;12.80;5.07;;;;;;;;;;4799980;29;20046;-70
2024/01/10 07:45:46;;;;;;;11.35;5.40;;;;;;;;;;4793217;29;20477;-70
2024/01/10 07:48:12;;;;;;;9.63;5.45;;;;;;;;;;4797169;29;20059;-71
2024/01/10 07:50:39;;;;;;;12.60;5.75;;;;;;;;;;4790872;29;20058;-72
2024/01/10 07:53:06;;;;;;;11.00;5.85;;;;;;;;;;4796015;29;20131;-71
2024/01/10 07:55:33;;;;;;;10.02;5.45;;;;;;;;;;4799757;29;20083;-72
2024/01/10 07:57:59;;;;;;;13.00;5.85;;;;;;;;;;4794787;29;20062;-71
2024/01/10 08:00:25;;;;;;;9.68;5.18;;;;;;;;;;4799591;29;20051;-74
2024/01/10 08:02:52;;;;;;;9.80;5.45;;;;;;;;;;4788521;29;20063;-71
2024/01/10 08:05:21;;;;;;;10.30;5.28;;;;;;;;;;4796888;29;20700;-74
2024/01/10 08:07:48;;;;;;;11.02;5.70;;;;;;;;;;4793947;29;20461;-74
2024/01/10 08:10:15;;;;;;;12.63;6.43;;;;;;;;;;4806340;29;20150;-73
2024/01/10 08:12:41;;;;;;;12.02;5.80;;;;;;;;;;4798467;29;20497;-73
2024/01/10 08:15:08;;;;;;;11.15;5.75;;;;;;;;;;4793371;29;20067;-74
2024/01/10 08:17:37;;;;;;;11.48;6.30;;;;;;;;;;4796729;29;20067;-72
2024/01/10 08:20:08;;;;;;;11.60;5.70;;;;;;;;;;4792335;29;20058;-73
2024/01/10 08:22:35;;;;;;;14.55;6.75;;;;;;;;;;4813742;29;20499;-73
2024/01/10 08:25:02;;;;;;;12.63;6.18;;;;;;;;;;4799367;29;20054;-73
2024/01/10 08:27:29;;;;;;;13.05;6.53;;;;;;;;;;4795182;29;20058;-73
2024/01/10 08:29:56;;;;;;;12.05;6.57;;;;;;;;;;4793088;29;20051;-73
2024/01/10 08:32:22;;;;;;;13.18;6.40;;;;;;;;;;4790885;29;20151;-74
2024/01/10 08:34:49;;;;;;;12.57;6.07;;;;;;;;;;4799390;29;20054;-73
2024/01/10 08:37:17;;;;;;;18.85;6.40;;;;;;;;;;4794850;29;20157;-73
2024/01/10 08:39:44;;;;;;;12.40;6.30;;;;;;;;;;4799872;29;20059;-74
2024/01/10 08:42:11;;;;;;;13.95;6.97;;;;;;;;;;4799756;29;20674;-74
2024/01/10 08:44:38;;;;;;;12.48;6.28;;;;;;;;;;4790336;29;20050;-74
2024/01/10 08:47:04;;;;;;;13.27;7.10;;;;;;;;;;4794076;29;20054;-74
2024/01/10 08:49:31;;;;;;;12.73;5.90;;;;;;;;;;4797996;29;20051;-74
2024/01/10 08:51:57;;;;;;;13.27;6.57;;;;;;;;;;4798061;29;20071;-73
2024/01/10 08:54:25;;;;;;;15.43;6.93;;;;;;;;;;4813274;29;20059;-74
2024/01/10 08:56:51;;;;;;;13.23;6.15;;;;;;;;;;4792010;29;20054;-73
2024/01/10 08:59:18;;;;;;;15.07;7.32;;;;;;;;;;4795160;29;20058;-75
2024/01/10 09:01:45;;;;;;;12.38;6.70;;;;;;;;;;4804060;29;20075;-73
2024/01/10 09:04:12;;;;;;;12.30;6.50;;;;;;;;;;4799132;29;20443;-73
2024/01/10 09:06:38;;;;;;;14.73;6.60;;;;;;;;;;4795505;29;20047;-74
2024/01/10 09:09:05;;;;;;;12.57;6.65;;;;;;;;;;4795515;29;20046;-75
2024/01/10 09:11:31;;;;;;;11.05;5.82;;;;;;;;;;4798756;29;20100;-74
2024/01/10 09:14:02;;;;;;;14.73;7.53;;;;;;;;;;4789704;29;20345;-74
2024/01/10 09:16:28;;;;;;;11.85;6.40;;;;;;;;;;4794440;29;20042;-74
2024/01/10 09:18:57;;;;;;;14.68;7.45;;;;;;;;;;4792997;29;20050;-74
2024/01/10 09:21:26;;;;;;;18.45;7.30;;;;;;;;;;4809373;29;20051;-74
2024/01/10 09:23:53;;;;;;;12.82;6.28;;;;;;;;;;4792221;29;20043;-75
2024/01/10 09:26:20;;;;;;;13.93;7.00;;;;;;;;;;4793281;29;20540;-74
2024/01/10 09:28:46;;;;;;;15.15;7.28;;;;;;;;;;4798372;29;20100;-76
2024/01/10 09:31:13;;;;;;;12.90;6.75;;;;;;;;;;4789327;29;20058;-74
2024/01/10 09:33:40;;;;;;;15.77;7.78;;;;;;;;;;4797197;29;20125;-73
2024/01/10 09:36:06;;;;;;;14.32;7.25;;;;;;;;;;4797453;29;20086;-74
2024/01/10 09:38:37;;;;;;;19.95;7.38;;;;;;;;;;4791386;29;20081;-73
2024/01/10 09:41:04;;;;;;;13.30;7.15;;;;;;;;;;4796434;29;20058;-75
2024/01/10 09:43:33;;;;;;;13.80;7.00;;;;;;;;;;4788070;29;20138;-74
2024/01/10 09:46:00;;;;;;;13.88;6.95;;;;;;;;;;4796621;29;20127;-74
2024/01/10 09:48:27;;;;;;;13.60;6.88;;;;;;;;;;4793015;29;20509;-74
2024/01/10 09:50:53;;;;;;;13.85;6.97;;;;;;;;;;4797045;29;20051;-74
2024/01/10 09:53:24;;;;;;;15.32;7.63;;;;;;;;;;4798529;29;20050;-74
2024/01/10 09:55:50;;;;;;;14.52;7.60;;;;;;;;;;4787127;29;20062;-74
2024/01/10 09:58:17;;;;;;;18.17;7.47;;;;;;;;;;4794499;29;20051;-74
2024/01/10 10:00:43;;;;;;;14.27;7.32;;;;;;;;;;4793660;29;20055;-75
2024/01/10 10:03:12;;;;;;;13.35;7.65;;;;;;;;;;4798634;29;20401;-75
2024/01/10 10:05:39;;;;;;;13.70;7.03;;;;;;;;;;4799803;29;20481;-75
2024/01/10 10:08:10;;;;;;;12.93;7.25;;;;;;;;;;4803662;29;20086;-80
2024/01/10 10:10:42;;;;;;;14.35;7.35;;;;;;;;;;4793961;29;20039;-78
2024/01/10 10:13:12;;;;;;;13.25;6.88;;;;;;;;;;4788761;29;20074;-76
2024/01/10 10:15:40;;;;;;;14.50;7.38;;;;;;;;;;4799504;29;20082;-76
2024/01/10 10:18:13;;;;;;;13.55;6.55;;;;;;;;;;4807134;29;20055;-77
2024/01/10 10:20:40;;;;;;;15.55;8.40;;;;;;;;;;4799010;29;20158;-76
2024/01/10 10:23:07;;;;;;;16.25;6.75;;;;;;;;;;4798888;29;20061;-77
2024/01/10 10:25:34;;;;;;;13.02;7.05;;;;;;;;;;4788748;29;20065;-79
2024/01/10 10:28:02;;;;;;;16.80;8.30;;;;;;;;;;4797715;29;20054;-76
2024/01/10 10:30:30;;;;;;;11.85;6.32;;;;;;;;;;4794697;29;20043;-76
2024/01/10 10:32:56;;;;;;;15.00;7.38;;;;;;;;;;4798096;29;20070;-75
2024/01/10 10:35:23;;;;;;;13.23;6.50;;;;;;;;;;4798705;29;20062;-75
2024/01/10 10:38:03;;;;;;;13.50;7.32;;;;;;;;;;4790585;29;20054;-76
2024/01/10 10:40:30;;;;;;;17.10;7.68;;;;;;;;;;4808636;29;20051;-77
2024/01/10 10:42:56;;;;;;;13.15;6.32;;;;;;;;;;4792762;29;20085;-77
2024/01/10 10:45:26;;;;;;;17.13;8.05;;;;;;;;;;4796920;29;20062;-76
2024/01/10 10:47:56;;;;;;;15.75;7.18;;;;;;;;;;4796021;29;20795;-77
2024/01/10 10:50:23;;;;;;;13.70;6.90;;;;;;;;;;4814049;29;20055;-77
2024/01/10 10:52:50;;;;;;;14.88;7.68;;;;;;;;;;4798718;29;20059;-76
2024/01/10 10:55:18;;;;;;;14.20;7.88;;;;;;;;;;4794710;29;20042;-75
2024/01/10 10:57:46;;;;;;;16.10;8.23;;;;;;;;;;4799283;29;20062;-71
2024/01/10 11:00:29;;;;;;;16.70;8.07;;;;;;;;;;4790919;29;20050;-70
2024/01/10 11:02:59;;;;;;;14.18;7.25;;;;;;;;;;4800528;29;20074;-72
2024/01/10 11:05:26;;;;;;;15.13;6.85;;;;;;;;;;4793674;29;20132;-71
2024/01/10 11:07:52;;;;;;;16.15;7.85;;;;;;;;;;4793920;29;20108;-72
2024/01/10 11:10:32;;;;;;;14.45;7.00;;;;;;;;;;4801302;29;20574;-75
2024/01/10 11:12:59;;;;;;;13.10;7.18;;;;;;;;;;4792968;29;20043;-73
2024/01/10 11:15:32;;;;;;;15.57;7.22;;;;;;;;;;4799786;29;20143;-74
2024/01/10 11:18:07;;;;;;;14.35;7.60;;;;;;;;;;4808777;29;20055;-73
2024/01/10 11:20:36;;;;;;;13.85;7.32;;;;;;;;;;4794398;29;20134;-74
2024/01/10 11:23:06;;;;;;;15.25;7.18;;;;;;;;;;4791169;29;20055;-74
2024/01/10 11:25:34;;;;;;;16.05;7.63;;;;;;;;;;4805034;29;20111;-74
2024/01/10 11:28:04;;;;;;;16.60;8.35;;;;;;;;;;4811019;29;20054;-74
2024/01/10 11:30:35;;;;;;;14.52;7.32;;;;;;;;;;4811680;29;20051;-74
2024/01/10 11:33:17;;;;;;;16.23;8.07;;;;;;;;;;4801579;29;20080;-73
2024/01/10 11:36:03;;;;;;;14.82;7.95;;;;;;;;;;4810574;29;20059;-76
2024/01/10 11:38:30;;;;;;;15.35;7.55;;;;;;;;;;4802090;29;20051;-75
2024/01/10 11:40:56;;;;;;;13.45;7.50;;;;;;;;;;4802049;29;20062;-74
2024/01/10 11:43:23;;;;;;;15.95;7.53;;;;;;;;;;4803445;29;20065;-75
2024/01/10 11:45:55;;;;;;;18.08;8.20;;;;;;;;;;4804643;29;20123;-73
2024/01/10 11:48:28;;;;;;;14.63;7.35;;;;;;;;;;4798867;29;20621;-73
2024/01/10 11:50:55;;;;;;;15.98;7.65;;;;;;;;;;4799713;29;20055;-74
2024/01/10 11:53:42;;;;;;;14.05;7.50;;;;;;;;;;4798139;29;20621;-74
2024/01/10 11:56:10;;;;;;;15.25;7.85;;;;;;;;;;4818476;29;20047;-72
2024/01/10 11:59:08;;;;;;;14.32;7.50;;;;;;;;;;4813144;29;20057;-73
2024/01/10 12:01:36;;;;;;;15.77;8.18;;;;;;;;;;4788683;29;20112;-73
2024/01/10 12:04:03;;;;;;;14.23;7.38;;;;;;;;;;4801248;29;20495;-73
2024/01/10 12:06:44;;;;;;;13.20;6.55;;;;;;;;;;4796272;29;20146;-73
2024/01/10 12:09:13;;;;;;;14.77;7.30;;;;;;;;;;4804311;29;20050;-75
2024/01/10 12:11:40;;;;;;;14.63;7.85;;;;;;;;;;4801269;29;20062;-75
2024/01/10 12:14:08;;;;;;;15.48;7.45;;;;;;;;;;4805541;29;20149;-73
2024/01/10 12:16:34;;;;;;;13.63;7.40;;;;;;;;;;4798651;29;20059;-78
2024/01/10 12:19:01;;;;;;;18.85;7.82;;;;;;;;;;4791476;29;20108;-78
2024/01/10 12:21:28;;;;;;;14.88;7.65;;;;;;;;;;4801034;29;20051;-77
2024/01/10 12:23:54;;;;;;;15.30;7.25;;;;;;;;;;4806650;29;20162;-73
2024/01/10 12:26:20;;;;;;;15.10;7.00;;;;;;;;;;4799405;29;20137;-75
2024/01/10 12:28:56;;;;;;;14.00;6.70;;;;;;;;;;4796348;29;20061;-76
2024/01/10 12:31:24;;;;;;;16.52;7.50;;;;;;;;;;4795321;29;20051;-76
2024/01/10 12:33:50;;;;;;;14.88;7.28;;;;;;;;;;4797864;29;20510;-77
2024/01/10 12:36:17;;;;;;;14.63;7.45;;;;;;;;;;4794058;29;20147;-76
2024/01/10 12:38:46;;;;;;;14.45;7.30;;;;;;;;;;4799152;29;20127;-76
2024/01/10 12:41:17;;;;;;;15.23;7.07;;;;;;;;;;4794740;29;20066;-73
2024/01/10 12:43:43;;;;;;;13.82;7.30;;;;;;;;;;4794935;29;20058;-72
2024/01/10 12:46:11;;;;;;;12.40;6.88;;;;;;;;;;4797017;29;20059;-74
2024/01/10 12:48:41;;;;;;;12.40;7.20;;;;;;;;;;4795173;29;20084;-77
2024/01/10 12:51:09;;;;;;;14.68;7.43;;;;;;;;;;4797697;29;20599;-72
2024/01/10 12:53:36;;;;;;;16.45;7.72;;;;;;;;;;4793780;29;20080;-72
2024/01/10 12:56:03;;;;;;;13.98;7.68;;;;;;;;;;4812738;29;20059;-72
2024/01/10 12:58:29;;;;;;;15.90;8.35;;;;;;;;;;4789627;29;20057;-73
2024/01/10 13:00:56;;;;;;;16.15;7.50;;;;;;;;;;4795149;29;20137;-71
2024/01/10 13:03:23;;;;;;;13.93;6.95;;;;;;;;;;4804364;29;20055;-71
2024/01/10 13:05:50;;;;;;;15.10;7.40;;;;;;;;;;4785199;29;20055;-72
2024/01/10 13:08:19;;;;;;;13.25;7.25;;;;;;;;;;4799544;29;20043;-72
2024/01/10 13:10:47;;;;;;;13.00;7.03;;;;;;;;;;4793554;29;20126;-71
2024/01/10 13:13:14;;;;;;;16.00;7.75;;;;;;;;;;4786021;29;20047;-74
2024/01/10 13:15:42;;;;;;;13.93;6.68;;;;;;;;;;4795028;29;20050;-73
2024/01/10 13:18:12;;;;;;;15.10;7.87;;;;;;;;;;4793530;29;20043;-72
2024/01/10 13:20:39;;;;;;;15.18;7.28;;;;;;;;;;4797784;29;20062;-71
2024/01/10 13:23:05;;;;;;;15.05;8.15;;;;;;;;;;4793641;29;20113;-73
2024/01/10 13:25:32;;;;;;;15.95;8.30;;;;;;;;;;4798810;29;20061;-72
2024/01/10 13:27:59;;;;;;;13.32;7.07;;;;;;;;;;4798779;29;20058;-73
2024/01/10 13:30:26;;;;;;;15.80;7.72;;;;;;;;;;4806706;29;20154;-72
2024/01/10 13:32:52;;;;;;;13.68;7.13;;;;;;;;;;4797412;29;20083;-72
2024/01/10 13:35:19;;;;;;;15.82;7.55;;;;;;;;;;4793480;29;20515;-73
2024/01/10 13:37:46;;;;;;;15.52;8.52;;;;;;;;;;4797090;29;20066;-73
2024/01/10 13:40:12;;;;;;;14.48;7.47;;;;;;;;;;4792931;29;20151;-73
2024/01/10 13:42:39;;;;;;;14.85;7.43;;;;;;;;;;4808067;29;20420;-71
2024/01/10 13:45:07;;;;;;;15.90;7.82;;;;;;;;;;4804569;29;20103;-72
2024/01/10 13:47:34;;;;;;;11.68;7.35;;;;;;;;;;4793083;29;20050;-73
2024/01/10 13:50:00;;;;;;;14.07;7.55;;;;;;;;;;4797837;29;20104;-74
2024/01/10 13:52:27;;;;;;;14.35;7.72;;;;;;;;;;4793924;29;20070;-72
2024/01/10 13:54:54;;;;;;;16.05;7.57;;;;;;;;;;4797214;29;20054;-73
2024/01/10 13:57:20;;;;;;;14.75;8.48;;;;;;;;;;4799311;29;20050;-74
2024/01/10 13:59:47;;;;;;;16.88;8.63;;;;;;;;;;4792217;29;20412;-73
2024/01/10 14:02:14;;;;;;;14.15;8.18;;;;;;;;;;4798962;29;20046;-72
2024/01/10 14:04:41;;;;;;;15.35;8.18;;;;;;;;;;4789364;29;20047;-75
2024/01/10 14:07:07;;;;;;;15.32;7.18;;;;;;;;;;4794914;29;20059;-76
2024/01/10 14:09:34;;;;;;;14.70;7.93;;;;;;;;;;4794405;29;20100;-76
2024/01/10 14:12:01;;;;;;;15.40;7.43;;;;;;;;;;4811499;29;20153;-75
2024/01/10 14:14:27;;;;;;;15.43;7.57;;;;;;;;;;4798782;29;20171;-75
2024/01/10 14:16:54;;;;;;;14.98;7.68;;;;;;;;;;4792545;29;20119;-76
2024/01/10 14:19:20;;;;;;;13.93;7.47;;;;;;;;;;4798580;29;20400;-76
2024/01/10 14:21:47;;;;;;;15.77;7.85;;;;;;;;;;4803383;29;20091;-77
2024/01/10 14:24:13;;;;;;;16.45;8.02;;;;;;;;;;4799917;29;20051;-76
2024/01/10 14:26:40;;;;;;;13.15;7.05;;;;;;;;;;4815473;29;20055;-75
2024/01/10 14:29:07;;;;;;;11.75;6.38;;;;;;;;;;4800019;29;20069;-76
2024/01/10 14:31:33;;;;;;;15.18;7.50;;;;;;;;;;4801819;29;20201;-76
2024/01/10 14:34:20;;;;;;;14.23;7.68;;;;;;;;;;4790195;29;20650;-77
2024/01/10 14:36:47;;;;;;;13.82;7.78;;;;;;;;;;4800551;29;20051;-74